sensor_id;sensor_type;location;lat;lon;timestamp;P1;durP1;ratioP1;P2;durP2;ratioP2
28483;SDS011;15704;48.834;8.736;2022-09-16T00:03:30;12.68;;;4.30;;
28483;SDS011;15704;48.834;8.736;2022-09-16T00:07:16;5.90;;;4.40;;
28483;SDS011;15704;48.834;8.736;2022-09-16T00:11:00;10.10;;;4.25;;
28483;SDS011;15704;48.834;8.736;2022-09-16T00:14:43;8.32;;;4.20;;
28483;SDS011;15704;48.834;8.736;2022-09-16T00:18:26;8.63;;;4.40;;
28483;SDS011;15704;48.834;8.736;2022-09-16T00:22:09;6.50;;;4.30;;
28483;SDS011;15704;48.834;8.736;2022-09-16T00:25:53;15.43;;;4.07;;
28483;SDS011;15704;48.834;8.736;2022-09-16T00:29:36;5.93;;;4.05;;
28483;SDS011;15704;48.834;8.736;2022-09-16T00:33:19;6.28;;;4.00;;
28483;SDS011;15704;48.834;8.736;2022-09-16T00:37:01;11.95;;;4.05;;
28483;SDS011;15704;48.834;8.736;2022-09-16T00:40:44;9.85;;;5.07;;
28483;SDS011;15704;48.834;8.736;2022-09-16T00:48:36;12.93;;;4.55;;
28483;SDS011;15704;48.834;8.736;2022-09-16T00:52:18;12.40;;;5.77;;
28483;SDS011;15704;48.834;8.736;2022-09-16T00:56:02;7.93;;;5.20;;
28483;SDS011;15704;48.834;8.736;2022-09-16T00:59:48;8.93;;;5.50;;
28483;SDS011;15704;48.834;8.736;2022-09-16T01:03:37;9.05;;;4.57;;
28483;SDS011;15704;48.834;8.736;2022-09-16T01:07:29;11.90;;;5.40;;
28483;SDS011;15704;48.834;8.736;2022-09-16T01:11:15;11.32;;;5.50;;
28483;SDS011;15704;48.834;8.736;2022-09-16T01:14:59;7.82;;;5.45;;
28483;SDS011;15704;48.834;8.736;2022-09-16T01:18:45;7.63;;;5.38;;
28483;SDS011;15704;48.834;8.736;2022-09-16T01:22:38;10.48;;;5.22;;
28483;SDS011;15704;48.834;8.736;2022-09-16T01:30:55;12.07;;;5.32;;
28483;SDS011;15704;48.834;8.736;2022-09-16T01:34:44;7.85;;;4.95;;
28483;SDS011;15704;48.834;8.736;2022-09-16T01:38:39;8.27;;;5.00;;
28483;SDS011;15704;48.834;8.736;2022-09-16T01:42:32;8.10;;;5.00;;
28483;SDS011;15704;48.834;8.736;2022-09-16T01:46:23;9.13;;;4.72;;
28483;SDS011;15704;48.834;8.736;2022-09-16T01:50:15;7.47;;;4.32;;
28483;SDS011;15704;48.834;8.736;2022-09-16T01:54:02;7.50;;;4.80;;
28483;SDS011;15704;48.834;8.736;2022-09-16T01:57:50;7.78;;;5.18;;
28483;SDS011;15704;48.834;8.736;2022-09-16T02:01:38;11.52;;;4.72;;
28483;SDS011;15704;48.834;8.736;2022-09-16T02:05:28;10.05;;;5.15;;
28483;SDS011;15704;48.834;8.736;2022-09-16T02:09:15;10.35;;;4.53;;
28483;SDS011;15704;48.834;8.736;2022-09-16T02:13:06;8.52;;;4.40;;
28483;SDS011;15704;48.834;8.736;2022-09-16T02:16:56;7.10;;;4.03;;
28483;SDS011;15704;48.834;8.736;2022-09-16T02:20:42;11.57;;;4.32;;
28483;SDS011;15704;48.834;8.736;2022-09-16T02:24:27;10.55;;;5.22;;
28483;SDS011;15704;48.834;8.736;2022-09-16T02:28:12;10.88;;;5.40;;
28483;SDS011;15704;48.834;8.736;2022-09-16T02:32:00;14.15;;;5.47;;
28483;SDS011;15704;48.834;8.736;2022-09-16T02:35:47;9.57;;;5.78;;
28483;SDS011;15704;48.834;8.736;2022-09-16T02:39:34;10.43;;;6.47;;
28483;SDS011;15704;48.834;8.736;2022-09-16T02:43:20;14.85;;;6.80;;
28483;SDS011;15704;48.834;8.736;2022-09-16T02:47:07;11.82;;;6.07;;
28483;SDS011;15704;48.834;8.736;2022-09-16T02:50:55;12.43;;;6.60;;
28483;SDS011;15704;48.834;8.736;2022-09-16T02:54:49;13.85;;;6.55;;
28483;SDS011;15704;48.834;8.736;2022-09-16T02:58:37;14.20;;;8.65;;
28483;SDS011;15704;48.834;8.736;2022-09-16T03:02:21;14.17;;;7.57;;
28483;SDS011;15704;48.834;8.736;2022-09-16T03:06:20;31.23;;;8.40;;
28483;SDS011;15704;48.834;8.736;2022-09-16T03:10:05;12.32;;;8.30;;
28483;SDS011;15704;48.834;8.736;2022-09-16T03:13:51;15.75;;;8.50;;
28483;SDS011;15704;48.834;8.736;2022-09-16T03:17:56;14.80;;;8.93;;
28483;SDS011;15704;48.834;8.736;2022-09-16T03:21:52;17.20;;;8.60;;
28483;SDS011;15704;48.834;8.736;2022-09-16T03:25:42;11.00;;;7.63;;
28483;SDS011;15704;48.834;8.736;2022-09-16T03:29:32;15.82;;;7.50;;
28483;SDS011;15704;48.834;8.736;2022-09-16T03:33:25;17.17;;;6.88;;
28483;SDS011;15704;48.834;8.736;2022-09-16T03:37:13;12.77;;;6.90;;
28483;SDS011;15704;48.834;8.736;2022-09-16T03:40:58;9.38;;;5.95;;
28483;SDS011;15704;48.834;8.736;2022-09-16T03:44:42;9.48;;;4.75;;
28483;SDS011;15704;48.834;8.736;2022-09-16T03:48:26;9.70;;;4.97;;
28483;SDS011;15704;48.834;8.736;2022-09-16T03:52:09;18.40;;;4.47;;
28483;SDS011;15704;48.834;8.736;2022-09-16T03:55:51;11.17;;;4.87;;
28483;SDS011;15704;48.834;8.736;2022-09-16T03:59:34;8.90;;;4.63;;
28483;SDS011;15704;48.834;8.736;2022-09-16T04:03:17;9.65;;;4.38;;
28483;SDS011;15704;48.834;8.736;2022-09-16T04:07:01;8.20;;;3.90;;
28483;SDS011;15704;48.834;8.736;2022-09-16T04:10:51;28.30;;;5.13;;
28483;SDS011;15704;48.834;8.736;2022-09-16T04:14:35;8.57;;;3.60;;
28483;SDS011;15704;48.834;8.736;2022-09-16T04:18:17;7.95;;;3.85;;
28483;SDS011;15704;48.834;8.736;2022-09-16T04:22:02;10.52;;;4.30;;
28483;SDS011;15704;48.834;8.736;2022-09-16T04:25:49;15.80;;;5.78;;
28483;SDS011;15704;48.834;8.736;2022-09-16T04:29:35;8.30;;;3.78;;
28483;SDS011;15704;48.834;8.736;2022-09-16T04:33:17;9.18;;;4.07;;
28483;SDS011;15704;48.834;8.736;2022-09-16T04:37:02;6.80;;;4.15;;
28483;SDS011;15704;48.834;8.736;2022-09-16T04:40:44;5.50;;;3.35;;
28483;SDS011;15704;48.834;8.736;2022-09-16T04:44:27;5.60;;;3.53;;
28483;SDS011;15704;48.834;8.736;2022-09-16T04:51:52;11.73;;;4.20;;
28483;SDS011;15704;48.834;8.736;2022-09-16T04:55:36;7.17;;;4.20;;
28483;SDS011;15704;48.834;8.736;2022-09-16T04:59:19;10.75;;;4.25;;
28483;SDS011;15704;48.834;8.736;2022-09-16T05:03:01;8.77;;;4.40;;
28483;SDS011;15704;48.834;8.736;2022-09-16T05:06:44;10.00;;;4.50;;
28483;SDS011;15704;48.834;8.736;2022-09-16T05:10:27;9.60;;;4.68;;
28483;SDS011;15704;48.834;8.736;2022-09-16T05:14:13;8.65;;;4.47;;
28483;SDS011;15704;48.834;8.736;2022-09-16T05:17:57;7.68;;;3.88;;
28483;SDS011;15704;48.834;8.736;2022-09-16T05:21:40;6.83;;;3.87;;
28483;SDS011;15704;48.834;8.736;2022-09-16T05:25:23;12.27;;;4.40;;
28483;SDS011;15704;48.834;8.736;2022-09-16T05:29:06;13.93;;;4.40;;
28483;SDS011;15704;48.834;8.736;2022-09-16T05:32:52;10.50;;;4.50;;
28483;SDS011;15704;48.834;8.736;2022-09-16T05:36:35;15.77;;;3.72;;
28483;SDS011;15704;48.834;8.736;2022-09-16T05:40:18;9.05;;;4.10;;
28483;SDS011;15704;48.834;8.736;2022-09-16T05:44:03;10.00;;;4.40;;
28483;SDS011;15704;48.834;8.736;2022-09-16T05:47:46;11.32;;;4.20;;
28483;SDS011;15704;48.834;8.736;2022-09-16T05:51:31;14.35;;;5.35;;
28483;SDS011;15704;48.834;8.736;2022-09-16T05:55:13;11.38;;;4.78;;
28483;SDS011;15704;48.834;8.736;2022-09-16T05:58:57;8.50;;;3.92;;
28483;SDS011;15704;48.834;8.736;2022-09-16T06:02:41;9.35;;;4.25;;
28483;SDS011;15704;48.834;8.736;2022-09-16T06:06:24;9.27;;;4.47;;
28483;SDS011;15704;48.834;8.736;2022-09-16T06:10:09;11.40;;;4.07;;
28483;SDS011;15704;48.834;8.736;2022-09-16T06:13:52;12.18;;;6.10;;
28483;SDS011;15704;48.834;8.736;2022-09-16T06:17:36;10.15;;;4.95;;
28483;SDS011;15704;48.834;8.736;2022-09-16T06:21:19;10.00;;;5.07;;
28483;SDS011;15704;48.834;8.736;2022-09-16T06:25:03;8.52;;;4.38;;
28483;SDS011;15704;48.834;8.736;2022-09-16T06:32:30;8.77;;;5.18;;
28483;SDS011;15704;48.834;8.736;2022-09-16T06:36:16;7.88;;;5.20;;
28483;SDS011;15704;48.834;8.736;2022-09-16T06:40:00;10.52;;;6.38;;
28483;SDS011;15704;48.834;8.736;2022-09-16T06:43:43;14.25;;;6.57;;
28483;SDS011;15704;48.834;8.736;2022-09-16T06:51:13;14.48;;;7.13;;
28483;SDS011;15704;48.834;8.736;2022-09-16T06:54:57;11.98;;;6.35;;
28483;SDS011;15704;48.834;8.736;2022-09-16T06:58:41;16.02;;;6.13;;
28483;SDS011;15704;48.834;8.736;2022-09-16T07:02:24;13.02;;;5.60;;
28483;SDS011;15704;48.834;8.736;2022-09-16T07:06:09;16.48;;;6.57;;
28483;SDS011;15704;48.834;8.736;2022-09-16T07:09:53;9.70;;;6.10;;
28483;SDS011;15704;48.834;8.736;2022-09-16T07:13:37;10.82;;;5.88;;
28483;SDS011;15704;48.834;8.736;2022-09-16T07:17:20;15.32;;;6.28;;
28483;SDS011;15704;48.834;8.736;2022-09-16T07:21:06;18.10;;;5.22;;
28483;SDS011;15704;48.834;8.736;2022-09-16T07:24:51;9.18;;;5.43;;
28483;SDS011;15704;48.834;8.736;2022-09-16T07:28:34;11.18;;;5.03;;
28483;SDS011;15704;48.834;8.736;2022-09-16T07:32:18;10.02;;;4.70;;
28483;SDS011;15704;48.834;8.736;2022-09-16T07:36:01;11.85;;;5.18;;
28483;SDS011;15704;48.834;8.736;2022-09-16T07:39:45;12.73;;;5.85;;
28483;SDS011;15704;48.834;8.736;2022-09-16T07:43:28;10.63;;;6.17;;
28483;SDS011;15704;48.834;8.736;2022-09-16T07:47:11;13.52;;;6.55;;
28483;SDS011;15704;48.834;8.736;2022-09-16T07:50:57;16.05;;;5.60;;
28483;SDS011;15704;48.834;8.736;2022-09-16T07:54:41;10.85;;;5.78;;
28483;SDS011;15704;48.834;8.736;2022-09-16T07:58:23;11.00;;;4.45;;
28483;SDS011;15704;48.834;8.736;2022-09-16T08:02:08;13.18;;;4.20;;
28483;SDS011;15704;48.834;8.736;2022-09-16T08:05:51;12.20;;;4.85;;
28483;SDS011;15704;48.834;8.736;2022-09-16T08:09:34;8.10;;;3.80;;
28483;SDS011;15704;48.834;8.736;2022-09-16T08:13:22;6.18;;;4.32;;
28483;SDS011;15704;48.834;8.736;2022-09-16T08:17:05;5.93;;;3.88;;
28483;SDS011;15704;48.834;8.736;2022-09-16T08:20:49;5.35;;;3.00;;
28483;SDS011;15704;48.834;8.736;2022-09-16T08:24:32;7.65;;;3.05;;
28483;SDS011;15704;48.834;8.736;2022-09-16T08:28:15;4.28;;;2.55;;
28483;SDS011;15704;48.834;8.736;2022-09-16T08:31:58;12.57;;;4.10;;
28483;SDS011;15704;48.834;8.736;2022-09-16T08:35:41;5.20;;;2.03;;
28483;SDS011;15704;48.834;8.736;2022-09-16T08:39:25;8.52;;;2.22;;
28483;SDS011;15704;48.834;8.736;2022-09-16T08:43:09;5.22;;;2.40;;
28483;SDS011;15704;48.834;8.736;2022-09-16T08:47:01;5.20;;;2.70;;
28483;SDS011;15704;48.834;8.736;2022-09-16T08:50:46;5.22;;;2.88;;
28483;SDS011;15704;48.834;8.736;2022-09-16T08:54:33;4.40;;;2.65;;
28483;SDS011;15704;48.834;8.736;2022-09-16T08:58:22;4.32;;;2.42;;
28483;SDS011;15704;48.834;8.736;2022-09-16T09:02:15;8.30;;;2.53;;
28483;SDS011;15704;48.834;8.736;2022-09-16T09:06:10;6.90;;;2.70;;
28483;SDS011;15704;48.834;8.736;2022-09-16T09:10:08;5.82;;;2.35;;
28483;SDS011;15704;48.834;8.736;2022-09-16T09:14:03;10.38;;;2.20;;
28483;SDS011;15704;48.834;8.736;2022-09-16T09:18:02;6.10;;;2.25;;
28483;SDS011;15704;48.834;8.736;2022-09-16T09:21:58;7.60;;;3.10;;
28483;SDS011;15704;48.834;8.736;2022-09-16T09:25:51;8.07;;;3.15;;
28483;SDS011;15704;48.834;8.736;2022-09-16T09:33:47;3.72;;;1.90;;
28483;SDS011;15704;48.834;8.736;2022-09-16T09:41:58;5.78;;;1.60;;
28483;SDS011;15704;48.834;8.736;2022-09-16T09:45:50;4.53;;;1.77;;
28483;SDS011;15704;48.834;8.736;2022-09-16T09:49:38;4.18;;;1.77;;
28483;SDS011;15704;48.834;8.736;2022-09-16T09:53:27;4.45;;;1.80;;
28483;SDS011;15704;48.834;8.736;2022-09-16T09:57:20;6.80;;;1.77;;
28483;SDS011;15704;48.834;8.736;2022-09-16T10:01:07;4.53;;;1.90;;
28483;SDS011;15704;48.834;8.736;2022-09-16T10:04:51;2.78;;;1.67;;
28483;SDS011;15704;48.834;8.736;2022-09-16T10:08:35;4.20;;;2.08;;
28483;SDS011;15704;48.834;8.736;2022-09-16T10:12:29;4.85;;;2.25;;
28483;SDS011;15704;48.834;8.736;2022-09-16T10:16:14;7.82;;;1.92;;
28483;SDS011;15704;48.834;8.736;2022-09-16T10:20:01;3.38;;;1.75;;
28483;SDS011;15704;48.834;8.736;2022-09-16T10:23:52;4.55;;;1.98;;
28483;SDS011;15704;48.834;8.736;2022-09-16T10:27:38;8.40;;;2.05;;
28483;SDS011;15704;48.834;8.736;2022-09-16T10:31:21;8.60;;;2.10;;
28483;SDS011;15704;48.834;8.736;2022-09-16T10:35:13;2.80;;;1.83;;
28483;SDS011;15704;48.834;8.736;2022-09-16T10:39:00;6.55;;;2.22;;
28483;SDS011;15704;48.834;8.736;2022-09-16T10:42:47;4.35;;;2.20;;
28483;SDS011;15704;48.834;8.736;2022-09-16T10:46:30;14.05;;;2.20;;
28483;SDS011;15704;48.834;8.736;2022-09-16T10:50:15;4.05;;;2.42;;
28483;SDS011;15704;48.834;8.736;2022-09-16T10:54:00;10.40;;;2.28;;
28483;SDS011;15704;48.834;8.736;2022-09-16T10:57:47;6.93;;;2.53;;
28483;SDS011;15704;48.834;8.736;2022-09-16T11:01:33;5.57;;;2.47;;
28483;SDS011;15704;48.834;8.736;2022-09-16T11:05:28;9.35;;;2.10;;
28483;SDS011;15704;48.834;8.736;2022-09-16T11:09:16;8.85;;;2.40;;
28483;SDS011;15704;48.834;8.736;2022-09-16T11:17:16;6.15;;;2.05;;
28483;SDS011;15704;48.834;8.736;2022-09-16T11:21:11;5.57;;;1.92;;
28483;SDS011;15704;48.834;8.736;2022-09-16T11:25:23;7.30;;;2.17;;
28483;SDS011;15704;48.834;8.736;2022-09-16T11:29:20;5.67;;;2.43;;
28483;SDS011;15704;48.834;8.736;2022-09-16T11:33:20;10.77;;;2.00;;
28483;SDS011;15704;48.834;8.736;2022-09-16T11:37:11;9.82;;;2.28;;
28483;SDS011;15704;48.834;8.736;2022-09-16T11:40:59;4.50;;;1.98;;
28483;SDS011;15704;48.834;8.736;2022-09-16T11:44:47;5.55;;;1.83;;
28483;SDS011;15704;48.834;8.736;2022-09-16T11:48:40;4.95;;;1.83;;
28483;SDS011;15704;48.834;8.736;2022-09-16T11:52:35;9.10;;;1.70;;
28483;SDS011;15704;48.834;8.736;2022-09-16T11:56:33;4.32;;;1.95;;
28483;SDS011;15704;48.834;8.736;2022-09-16T12:00:22;5.78;;;2.35;;
28483;SDS011;15704;48.834;8.736;2022-09-16T12:04:07;2.20;;;1.52;;
28483;SDS011;15704;48.834;8.736;2022-09-16T12:07:56;8.88;;;2.17;;
28483;SDS011;15704;48.834;8.736;2022-09-16T12:11:46;12.80;;;2.10;;
28483;SDS011;15704;48.834;8.736;2022-09-16T12:15:35;3.28;;;2.10;;
28483;SDS011;15704;48.834;8.736;2022-09-16T12:19:22;5.85;;;2.00;;
28483;SDS011;15704;48.834;8.736;2022-09-16T12:23:11;5.20;;;2.47;;
28483;SDS011;15704;48.834;8.736;2022-09-16T12:27:01;8.50;;;2.08;;
28483;SDS011;15704;48.834;8.736;2022-09-16T12:30:51;6.93;;;1.98;;
28483;SDS011;15704;48.834;8.736;2022-09-16T12:34:43;6.38;;;1.80;;
28483;SDS011;15704;48.834;8.736;2022-09-16T12:38:29;3.50;;;1.70;;
28483;SDS011;15704;48.834;8.736;2022-09-16T12:42:34;4.07;;;1.45;;
28483;SDS011;15704;48.834;8.736;2022-09-16T12:46:33;6.97;;;1.88;;
28483;SDS011;15704;48.834;8.736;2022-09-16T12:50:37;4.05;;;1.80;;
28483;SDS011;15704;48.834;8.736;2022-09-16T12:54:43;5.10;;;1.63;;
28483;SDS011;15704;48.834;8.736;2022-09-16T12:58:56;3.78;;;1.58;;
28483;SDS011;15704;48.834;8.736;2022-09-16T13:02:50;3.38;;;1.60;;
28483;SDS011;15704;48.834;8.736;2022-09-16T13:06:35;8.68;;;1.73;;
28483;SDS011;15704;48.834;8.736;2022-09-16T13:10:28;4.05;;;1.48;;
28483;SDS011;15704;48.834;8.736;2022-09-16T13:14:32;4.85;;;1.63;;
28483;SDS011;15704;48.834;8.736;2022-09-16T13:18:38;3.70;;;1.30;;
28483;SDS011;15704;48.834;8.736;2022-09-16T13:22:24;2.95;;;1.38;;
28483;SDS011;15704;48.834;8.736;2022-09-16T13:26:11;5.78;;;1.52;;
28483;SDS011;15704;48.834;8.736;2022-09-16T13:30:05;7.07;;;1.58;;
28483;SDS011;15704;48.834;8.736;2022-09-16T13:34:09;5.28;;;1.60;;
28483;SDS011;15704;48.834;8.736;2022-09-16T13:37:56;4.30;;;1.42;;
28483;SDS011;15704;48.834;8.736;2022-09-16T13:41:41;2.60;;;1.30;;
28483;SDS011;15704;48.834;8.736;2022-09-16T13:45:31;4.22;;;1.30;;
28483;SDS011;15704;48.834;8.736;2022-09-16T13:49:17;4.88;;;2.05;;
28483;SDS011;15704;48.834;8.736;2022-09-16T13:53:07;5.45;;;1.58;;
28483;SDS011;15704;48.834;8.736;2022-09-16T14:01:03;7.53;;;1.45;;
28483;SDS011;15704;48.834;8.736;2022-09-16T14:05:00;4.10;;;1.50;;
28483;SDS011;15704;48.834;8.736;2022-09-16T14:09:14;6.18;;;1.52;;
28483;SDS011;15704;48.834;8.736;2022-09-16T14:13:07;5.32;;;1.88;;
28483;SDS011;15704;48.834;8.736;2022-09-16T14:16:52;6.38;;;1.40;;
28483;SDS011;15704;48.834;8.736;2022-09-16T14:20:37;5.50;;;1.73;;
28483;SDS011;15704;48.834;8.736;2022-09-16T14:24:20;4.63;;;1.70;;
28483;SDS011;15704;48.834;8.736;2022-09-16T14:32:10;7.72;;;1.58;;
28483;SDS011;15704;48.834;8.736;2022-09-16T14:35:56;4.47;;;1.65;;
28483;SDS011;15704;48.834;8.736;2022-09-16T14:39:40;3.10;;;1.35;;
28483;SDS011;15704;48.834;8.736;2022-09-16T14:43:24;6.57;;;1.52;;
28483;SDS011;15704;48.834;8.736;2022-09-16T14:47:08;3.28;;;1.50;;
28483;SDS011;15704;48.834;8.736;2022-09-16T14:51:21;5.38;;;1.50;;
28483;SDS011;15704;48.834;8.736;2022-09-16T14:55:06;6.65;;;2.08;;
28483;SDS011;15704;48.834;8.736;2022-09-16T14:58:56;4.40;;;1.40;;
28483;SDS011;15704;48.834;8.736;2022-09-16T15:02:40;3.42;;;1.30;;
28483;SDS011;15704;48.834;8.736;2022-09-16T15:06:27;6.82;;;1.40;;
28483;SDS011;15704;48.834;8.736;2022-09-16T15:10:17;8.43;;;1.60;;
28483;SDS011;15704;48.834;8.736;2022-09-16T15:14:04;7.53;;;1.42;;
28483;SDS011;15704;48.834;8.736;2022-09-16T15:17:52;6.97;;;1.60;;
28483;SDS011;15704;48.834;8.736;2022-09-16T15:21:41;3.60;;;1.23;;
28483;SDS011;15704;48.834;8.736;2022-09-16T15:25:26;5.30;;;1.17;;
28483;SDS011;15704;48.834;8.736;2022-09-16T15:29:24;12.73;;;2.10;;
28483;SDS011;15704;48.834;8.736;2022-09-16T15:33:21;3.40;;;1.75;;
28483;SDS011;15704;48.834;8.736;2022-09-16T15:37:30;8.10;;;1.37;;
28483;SDS011;15704;48.834;8.736;2022-09-16T15:41:13;3.58;;;1.00;;
28483;SDS011;15704;48.834;8.736;2022-09-16T15:44:57;5.45;;;1.10;;
28483;SDS011;15704;48.834;8.736;2022-09-16T15:48:43;5.10;;;1.23;;
28483;SDS011;15704;48.834;8.736;2022-09-16T15:52:30;11.85;;;1.27;;
28483;SDS011;15704;48.834;8.736;2022-09-16T15:56:18;2.05;;;1.00;;
28483;SDS011;15704;48.834;8.736;2022-09-16T16:00:04;15.55;;;1.38;;
28483;SDS011;15704;48.834;8.736;2022-09-16T16:03:56;3.60;;;1.35;;
28483;SDS011;15704;48.834;8.736;2022-09-16T16:07:42;5.30;;;1.40;;
28483;SDS011;15704;48.834;8.736;2022-09-16T16:11:26;5.65;;;2.38;;
28483;SDS011;15704;48.834;8.736;2022-09-16T16:15:11;5.35;;;1.42;;
28483;SDS011;15704;48.834;8.736;2022-09-16T16:18:55;3.85;;;1.45;;
28483;SDS011;15704;48.834;8.736;2022-09-16T16:22:42;5.00;;;1.55;;
28483;SDS011;15704;48.834;8.736;2022-09-16T16:26:25;7.53;;;1.70;;
28483;SDS011;15704;48.834;8.736;2022-09-16T16:30:08;6.00;;;1.60;;
28483;SDS011;15704;48.834;8.736;2022-09-16T16:33:52;4.40;;;1.30;;
28483;SDS011;15704;48.834;8.736;2022-09-16T16:37:34;1.80;;;1.20;;
28483;SDS011;15704;48.834;8.736;2022-09-16T16:41:28;2.75;;;1.33;;
28483;SDS011;15704;48.834;8.736;2022-09-16T16:45:11;2.45;;;1.10;;
28483;SDS011;15704;48.834;8.736;2022-09-16T16:48:54;8.48;;;1.70;;
28483;SDS011;15704;48.834;8.736;2022-09-16T16:52:37;3.67;;;1.48;;
28483;SDS011;15704;48.834;8.736;2022-09-16T16:56:19;5.07;;;1.38;;
28483;SDS011;15704;48.834;8.736;2022-09-16T17:00:04;12.63;;;2.35;;
28483;SDS011;15704;48.834;8.736;2022-09-16T17:03:48;3.03;;;0.90;;
28483;SDS011;15704;48.834;8.736;2022-09-16T17:07:31;3.10;;;1.30;;
28483;SDS011;15704;48.834;8.736;2022-09-16T17:11:14;5.32;;;1.55;;
28483;SDS011;15704;48.834;8.736;2022-09-16T17:14:58;1.05;;;0.80;;
28483;SDS011;15704;48.834;8.736;2022-09-16T17:18:42;1.75;;;0.80;;
28483;SDS011;15704;48.834;8.736;2022-09-16T17:22:25;2.85;;;0.93;;
28483;SDS011;15704;48.834;8.736;2022-09-16T17:26:07;6.78;;;1.40;;
28483;SDS011;15704;48.834;8.736;2022-09-16T17:29:51;5.45;;;1.15;;
28483;SDS011;15704;48.834;8.736;2022-09-16T17:33:34;4.72;;;1.42;;
28483;SDS011;15704;48.834;8.736;2022-09-16T17:37:18;3.63;;;1.25;;
28483;SDS011;15704;48.834;8.736;2022-09-16T17:41:01;3.63;;;0.95;;
28483;SDS011;15704;48.834;8.736;2022-09-16T17:44:45;2.47;;;0.90;;
28483;SDS011;15704;48.834;8.736;2022-09-16T17:48:28;7.93;;;1.83;;
28483;SDS011;15704;48.834;8.736;2022-09-16T17:52:12;2.53;;;0.90;;
28483;SDS011;15704;48.834;8.736;2022-09-16T17:56:01;2.65;;;0.90;;
28483;SDS011;15704;48.834;8.736;2022-09-16T17:59:45;2.25;;;0.82;;
28483;SDS011;15704;48.834;8.736;2022-09-16T18:03:27;0.80;;;0.50;;
28483;SDS011;15704;48.834;8.736;2022-09-16T18:07:10;0.93;;;0.50;;
28483;SDS011;15704;48.834;8.736;2022-09-16T18:10:53;3.55;;;0.85;;
28483;SDS011;15704;48.834;8.736;2022-09-16T18:14:37;1.95;;;0.63;;
28483;SDS011;15704;48.834;8.736;2022-09-16T18:18:20;0.93;;;0.70;;
28483;SDS011;15704;48.834;8.736;2022-09-16T18:22:03;1.58;;;0.57;;
28483;SDS011;15704;48.834;8.736;2022-09-16T18:25:46;1.10;;;0.60;;
28483;SDS011;15704;48.834;8.736;2022-09-16T18:29:29;2.00;;;0.75;;
28483;SDS011;15704;48.834;8.736;2022-09-16T18:33:13;1.83;;;0.73;;
28483;SDS011;15704;48.834;8.736;2022-09-16T18:36:55;1.27;;;0.73;;
28483;SDS011;15704;48.834;8.736;2022-09-16T18:40:38;2.33;;;0.63;;
28483;SDS011;15704;48.834;8.736;2022-09-16T18:44:21;2.05;;;0.77;;
28483;SDS011;15704;48.834;8.736;2022-09-16T18:48:04;1.33;;;0.77;;
28483;SDS011;15704;48.834;8.736;2022-09-16T18:51:49;1.63;;;0.77;;
28483;SDS011;15704;48.834;8.736;2022-09-16T18:55:35;2.83;;;0.50;;
28483;SDS011;15704;48.834;8.736;2022-09-16T18:59:18;1.73;;;0.60;;
28483;SDS011;15704;48.834;8.736;2022-09-16T19:03:04;2.20;;;0.80;;
28483;SDS011;15704;48.834;8.736;2022-09-16T19:06:49;0.73;;;0.63;;
28483;SDS011;15704;48.834;8.736;2022-09-16T19:10:33;0.43;;;0.43;;
28483;SDS011;15704;48.834;8.736;2022-09-16T19:14:15;3.83;;;0.83;;
28483;SDS011;15704;48.834;8.736;2022-09-16T19:17:59;4.32;;;0.70;;
28483;SDS011;15704;48.834;8.736;2022-09-16T19:21:41;0.95;;;0.70;;
28483;SDS011;15704;48.834;8.736;2022-09-16T19:25:26;7.38;;;1.33;;
28483;SDS011;15704;48.834;8.736;2022-09-16T19:29:09;1.63;;;0.73;;
28483;SDS011;15704;48.834;8.736;2022-09-16T19:32:53;0.65;;;0.65;;
28483;SDS011;15704;48.834;8.736;2022-09-16T19:40:20;2.40;;;0.65;;
28483;SDS011;15704;48.834;8.736;2022-09-16T19:44:05;2.22;;;0.90;;
28483;SDS011;15704;48.834;8.736;2022-09-16T19:47:48;1.20;;;0.70;;
28483;SDS011;15704;48.834;8.736;2022-09-16T19:51:31;1.92;;;0.65;;
28483;SDS011;15704;48.834;8.736;2022-09-16T19:55:14;0.60;;;0.60;;
28483;SDS011;15704;48.834;8.736;2022-09-16T19:58:57;0.45;;;0.43;;
28483;SDS011;15704;48.834;8.736;2022-09-16T20:02:43;1.30;;;0.98;;
28483;SDS011;15704;48.834;8.736;2022-09-16T20:06:27;1.75;;;0.80;;
28483;SDS011;15704;48.834;8.736;2022-09-16T20:10:12;4.68;;;0.88;;
28483;SDS011;15704;48.834;8.736;2022-09-16T20:17:40;0.55;;;0.50;;
28483;SDS011;15704;48.834;8.736;2022-09-16T20:21:24;0.80;;;0.60;;
28483;SDS011;15704;48.834;8.736;2022-09-16T20:25:09;2.28;;;0.95;;
28483;SDS011;15704;48.834;8.736;2022-09-16T20:29:03;1.08;;;0.63;;
28483;SDS011;15704;48.834;8.736;2022-09-16T20:32:46;0.80;;;0.50;;
28483;SDS011;15704;48.834;8.736;2022-09-16T20:36:31;0.90;;;0.65;;
28483;SDS011;15704;48.834;8.736;2022-09-16T20:40:18;0.85;;;0.70;;
28483;SDS011;15704;48.834;8.736;2022-09-16T20:44:01;3.87;;;0.73;;
28483;SDS011;15704;48.834;8.736;2022-09-16T20:47:49;4.03;;;0.88;;
28483;SDS011;15704;48.834;8.736;2022-09-16T20:51:33;3.03;;;1.23;;
28483;SDS011;15704;48.834;8.736;2022-09-16T20:55:15;7.82;;;1.05;;
28483;SDS011;15704;48.834;8.736;2022-09-16T20:58:59;0.70;;;0.55;;
28483;SDS011;15704;48.834;8.736;2022-09-16T21:02:41;1.23;;;0.90;;
28483;SDS011;15704;48.834;8.736;2022-09-16T21:06:24;3.58;;;1.15;;
28483;SDS011;15704;48.834;8.736;2022-09-16T21:10:09;1.23;;;0.60;;
28483;SDS011;15704;48.834;8.736;2022-09-16T21:13:53;1.17;;;0.77;;
28483;SDS011;15704;48.834;8.736;2022-09-16T21:17:38;4.95;;;0.90;;
28483;SDS011;15704;48.834;8.736;2022-09-16T21:21:20;0.70;;;0.70;;
28483;SDS011;15704;48.834;8.736;2022-09-16T21:25:05;2.53;;;0.98;;
28483;SDS011;15704;48.834;8.736;2022-09-16T21:28:52;2.08;;;0.57;;
28483;SDS011;15704;48.834;8.736;2022-09-16T21:32:38;3.38;;;0.93;;
28483;SDS011;15704;48.834;8.736;2022-09-16T21:36:24;1.40;;;0.63;;
28483;SDS011;15704;48.834;8.736;2022-09-16T21:40:08;1.95;;;0.60;;
28483;SDS011;15704;48.834;8.736;2022-09-16T21:43:56;1.40;;;0.70;;
28483;SDS011;15704;48.834;8.736;2022-09-16T21:47:39;4.20;;;0.90;;
28483;SDS011;15704;48.834;8.736;2022-09-16T21:51:22;1.63;;;0.85;;
28483;SDS011;15704;48.834;8.736;2022-09-16T21:55:05;1.55;;;0.63;;
28483;SDS011;15704;48.834;8.736;2022-09-16T22:02:35;1.63;;;0.77;;
28483;SDS011;15704;48.834;8.736;2022-09-16T22:06:18;3.92;;;1.05;;
28483;SDS011;15704;48.834;8.736;2022-09-16T22:10:02;3.45;;;0.90;;
28483;SDS011;15704;48.834;8.736;2022-09-16T22:13:45;1.95;;;0.82;;
28483;SDS011;15704;48.834;8.736;2022-09-16T22:21:13;1.85;;;0.90;;
28483;SDS011;15704;48.834;8.736;2022-09-16T22:24:56;0.70;;;0.65;;
28483;SDS011;15704;48.834;8.736;2022-09-16T22:28:38;4.23;;;0.97;;
28483;SDS011;15704;48.834;8.736;2022-09-16T22:32:21;1.17;;;0.73;;
28483;SDS011;15704;48.834;8.736;2022-09-16T22:52:46;6.80;;;1.00;;
28483;SDS011;15704;48.834;8.736;2022-09-16T22:56:29;1.58;;;1.00;;
28483;SDS011;15704;48.834;8.736;2022-09-16T23:00:13;1.60;;;0.80;;
28483;SDS011;15704;48.834;8.736;2022-09-16T23:03:57;1.65;;;0.88;;
28483;SDS011;15704;48.834;8.736;2022-09-16T23:07:41;1.58;;;0.93;;
28483;SDS011;15704;48.834;8.736;2022-09-16T23:11:27;3.17;;;0.82;;
28483;SDS011;15704;48.834;8.736;2022-09-16T23:15:12;1.23;;;0.80;;
28483;SDS011;15704;48.834;8.736;2022-09-16T23:22:39;3.08;;;1.00;;
28483;SDS011;15704;48.834;8.736;2022-09-16T23:26:23;3.23;;;0.80;;
28483;SDS011;15704;48.834;8.736;2022-09-16T23:30:08;3.30;;;1.13;;
28483;SDS011;15704;48.834;8.736;2022-09-16T23:37:34;1.25;;;0.90;;
28483;SDS011;15704;48.834;8.736;2022-09-16T23:41:17;3.00;;;1.38;;
28483;SDS011;15704;48.834;8.736;2022-09-16T23:45:03;1.58;;;1.00;;
28483;SDS011;15704;48.834;8.736;2022-09-16T23:48:46;2.65;;;1.20;;
28483;SDS011;15704;48.834;8.736;2022-09-16T23:52:31;4.47;;;1.40;;
28483;SDS011;15704;48.834;8.736;2022-09-16T23:56:15;4.13;;;1.23;;
